Westchester, Florida
Current Conditions -  °F | °C
As of 6:53 AM on Friday 31 Oct 2014 (Local Time) from KMIA Reporting Station
Few Clouds Few Clouds  
Wind Chill: 72°   Ceiling: Unl
Heat Index: 72°   Visibility: 10mi
Dew Point: 69°   Wind: 3mph
Humidity: 91%   Direction: 260°W
Pressure: 29.85"   Gusts: NA
Location:  25.7365°N, 80.3606°W
Report Text: KMIA 311053Z 26003KT 10SM FEW250 22/21 A2985 RMK AO2 SLP109 T02220206
Loading
Personal Weather Stations






























Interactive Weather Map
Tropical Storm Tracking
New forecast layout! Learn more

10-Day Weather Forecast

Advertisements
Track Severe Weather on mobile